createdAt,value
2023-02-16T00:02:33.088Z,62.95
2023-02-16T00:07:29.703Z,62.25
2023-02-16T00:12:45.360Z,61.83
2023-02-16T00:17:42.050Z,61.99
2023-02-16T00:22:40.239Z,61.97
2023-02-16T00:27:37.947Z,61.24
2023-02-16T00:32:34.666Z,60.83
2023-02-16T00:37:33.373Z,60.22
2023-02-16T00:42:31.977Z,59.49
2023-02-16T00:47:32.361Z,58.35
2023-02-16T00:52:33.084Z,58.04
2023-02-16T00:57:32.072Z,58.60
2023-02-16T01:02:28.950Z,58.65
2023-02-16T01:07:45.310Z,57.86
2023-02-16T01:12:42.196Z,58.47
2023-02-16T01:17:38.881Z,58.60
2023-02-16T01:22:36.210Z,58.41
2023-02-16T01:27:33.311Z,59.01
2023-02-16T01:32:29.966Z,59.63
2023-02-16T01:37:26.826Z,60.64
2023-02-16T01:42:30.207Z,60.56
2023-02-16T01:47:37.933Z,60.44
2023-02-16T01:52:37.751Z,61.09
2023-02-16T01:57:41.681Z,61.70
2023-02-16T02:02:42.058Z,62.25
2023-02-16T02:07:41.939Z,62.90
2023-02-16T02:12:45.062Z,63.53
2023-02-16T02:17:41.858Z,65.92
2023-02-16T02:23:16.075Z,65.37
2023-02-16T02:28:18.429Z,63.99
2023-02-16T02:33:24.985Z,64.96
2023-02-16T02:38:25.026Z,64.18
2023-02-16T02:43:24.886Z,64.51
2023-02-16T02:48:21.602Z,65.93
2023-02-16T02:53:18.394Z,66.51
2023-02-16T02:58:33.824Z,67.46
2023-02-16T03:03:32.832Z,68.38
2023-02-16T03:08:31.396Z,68.95
2023-02-16T03:13:32.998Z,69.63
2023-02-16T03:18:49.580Z,68.15
2023-02-16T03:24:07.063Z,67.86
2023-02-16T03:29:18.769Z,66.81
2023-02-16T03:34:16.224Z,65.44
2023-02-16T03:39:13.542Z,65.25
2023-02-16T03:44:10.532Z,64.37
2023-02-16T03:49:07.433Z,63.89
2023-02-16T03:54:04.718Z,63.60
2023-02-16T03:59:01.943Z,63.61
2023-02-16T04:03:58.732Z,63.29
2023-02-16T04:08:55.815Z,63.37
2023-02-16T04:13:52.566Z,62.73
2023-02-16T04:18:50.141Z,61.15
2023-02-16T04:23:46.879Z,61.41
2023-02-16T04:28:43.717Z,61.31
2023-02-16T04:33:40.393Z,61.32
2023-02-16T04:38:37.743Z,61.59
2023-02-16T04:43:34.668Z,60.74
2023-02-16T04:48:31.202Z,60.58
2023-02-16T04:53:27.986Z,60.19
2023-02-16T04:58:25.300Z,60.32
2023-02-16T05:03:21.837Z,60.61
2023-02-16T05:08:20.841Z,60.21
2023-02-16T05:13:36.057Z,60.50
2023-02-16T05:18:33.407Z,60.88
2023-02-16T05:23:30.053Z,61.40
2023-02-16T05:28:26.845Z,61.92
2023-02-16T05:33:23.762Z,61.43
2023-02-16T05:38:21.224Z,61.42
2023-02-16T05:43:18.940Z,62.31
2023-02-16T05:48:15.474Z,62.59
2023-02-16T05:53:12.124Z,62.63
2023-02-16T05:58:09.428Z,62.71
2023-02-16T06:03:06.162Z,62.80
2023-02-16T06:08:02.817Z,62.86
2023-02-16T06:12:59.576Z,63.11
2023-02-16T06:17:56.973Z,62.43
2023-02-16T06:22:54.963Z,62.67
2023-02-16T06:27:52.162Z,62.31
2023-02-16T06:32:51.686Z,62.43
2023-02-16T06:37:49.121Z,62.52
2023-02-16T06:42:45.877Z,61.83
2023-02-16T06:47:42.772Z,61.55
2023-02-16T06:52:40.713Z,61.78
2023-02-16T06:57:40.681Z,61.59
2023-02-16T07:02:56.117Z,61.04
2023-02-16T07:07:53.221Z,60.69
2023-02-16T07:12:50.866Z,60.74
2023-02-16T07:17:47.840Z,60.27
2023-02-16T07:22:47.257Z,60.53
2023-02-16T07:28:05.310Z,59.83
2023-02-16T07:39:40.188Z,62.71
2023-02-16T07:45:01.383Z,64.07
2023-02-16T07:50:59.458Z,66.98
2023-02-16T07:57:18.807Z,68.80
2023-02-16T08:03:00.182Z,69.73
2023-02-16T08:27:16.172Z,70.90
2023-02-16T08:38:57.743Z,70.19
2023-02-16T09:08:44.637Z,67.85
2023-02-16T09:14:52.886Z,68.15
2023-02-16T09:20:28.347Z,67.47
2023-02-16T09:25:47.849Z,66.63
2023-02-16T09:30:48.276Z,66.71
2023-02-16T09:35:45.435Z,66.18
2023-02-16T09:40:42.221Z,64.84
2023-02-16T09:45:41.810Z,64.21
2023-02-16T09:50:53.462Z,64.42
2023-02-16T09:56:19.799Z,65.21
2023-02-16T10:01:20.822Z,63.90
2023-02-16T10:06:30.655Z,64.50
2023-02-16T10:11:41.650Z,63.25
2023-02-16T10:16:41.577Z,62.46
2023-02-16T10:21:44.923Z,62.06
2023-02-16T10:26:45.565Z,61.35
2023-02-16T10:31:55.598Z,61.53
2023-02-16T10:37:09.871Z,60.67
2023-02-16T10:42:20.523Z,60.60
2023-02-16T10:47:45.537Z,59.56
2023-02-16T10:52:44.247Z,59.00
2023-02-16T10:57:45.561Z,59.13
2023-02-16T11:02:46.948Z,57.90
2023-02-16T11:07:52.585Z,57.05
2023-02-16T11:12:56.947Z,56.40
2023-02-16T11:17:59.660Z,56.37
2023-02-16T11:23:17.995Z,55.06
2023-02-16T11:28:25.173Z,55.41
2023-02-16T11:33:27.095Z,54.92
2023-02-16T11:38:26.784Z,53.76
2023-02-16T11:43:26.490Z,54.06
2023-02-16T11:48:25.731Z,54.53
2023-02-16T11:53:24.003Z,53.72
2023-02-16T11:58:24.413Z,53.41
2023-02-16T12:03:31.406Z,53.72
2023-02-16T12:08:35.038Z,52.48
2023-02-16T12:13:39.423Z,52.20
2023-02-16T12:18:43.691Z,51.91
2023-02-16T12:23:42.874Z,51.63
2023-02-16T12:28:43.057Z,52.05
2023-02-16T12:33:47.645Z,51.15
2023-02-16T12:38:50.030Z,49.95
2023-02-16T12:43:56.584Z,49.54
2023-02-16T12:49:00.700Z,51.04
2023-02-16T12:54:01.507Z,49.92
2023-02-16T12:59:05.371Z,50.36
2023-02-16T13:04:07.326Z,50.02
2023-02-16T13:09:13.371Z,49.33
2023-02-16T13:14:15.309Z,50.63
2023-02-16T13:19:13.549Z,49.61
2023-02-16T13:24:14.470Z,49.42
2023-02-16T13:29:32.035Z,49.01
2023-02-16T13:34:58.768Z,49.73
2023-02-16T13:40:15.690Z,49.14
2023-02-16T13:45:15.433Z,49.58
2023-02-16T13:50:25.394Z,49.36
2023-02-16T13:55:24.360Z,49.03
2023-02-16T14:00:28.726Z,49.26
2023-02-16T14:05:32.392Z,49.28
2023-02-16T14:10:56.713Z,48.79
2023-02-16T14:15:54.623Z,48.07
2023-02-16T14:21:00.346Z,49.16
2023-02-16T14:26:02.947Z,50.07
2023-02-16T14:31:02.377Z,49.89
2023-02-16T14:36:08.553Z,48.74
2023-02-16T14:41:08.395Z,48.67
2023-02-16T14:46:18.413Z,49.09
2023-02-16T14:51:22.923Z,49.11
2023-02-16T14:56:34.557Z,49.22
2023-02-16T15:01:38.849Z,49.44
2023-02-16T15:06:41.385Z,49.16
2023-02-16T15:12:30.423Z,49.44
2023-02-16T15:17:50.127Z,49.35
2023-02-16T15:22:52.729Z,49.35
2023-02-16T15:28:00.694Z,49.85
2023-02-16T15:32:59.256Z,49.92
2023-02-16T15:38:00.285Z,50.05
2023-02-16T15:43:00.151Z,50.10
2023-02-16T15:48:11.792Z,50.02
2023-02-16T15:53:11.283Z,50.23
2023-02-16T15:58:08.718Z,50.17
2023-02-16T16:03:08.928Z,50.28
2023-02-16T16:08:07.069Z,50.12
2023-02-16T16:13:11.370Z,50.12
2023-02-16T16:18:30.435Z,50.53
2023-02-16T16:23:31.955Z,50.90
2023-02-16T16:28:37.569Z,51.42
2023-02-16T16:33:50.456Z,51.36
2023-02-16T16:38:48.092Z,51.74
2023-02-16T16:43:52.469Z,51.99
2023-02-16T16:48:50.808Z,52.11
2023-02-16T16:53:52.779Z,52.13
2023-02-16T16:58:50.377Z,52.20
2023-02-16T17:03:52.439Z,52.86
2023-02-16T17:08:54.524Z,52.93
2023-02-16T17:13:52.966Z,53.23
2023-02-16T17:18:49.723Z,53.11
2023-02-16T17:24:07.397Z,53.61
2023-02-16T17:29:57.865Z,53.31
2023-02-16T17:34:53.593Z,53.51
2023-02-16T17:39:50.737Z,53.79
2023-02-16T17:44:47.574Z,53.94
2023-02-16T17:49:44.184Z,54.33
2023-02-16T17:54:44.304Z,54.38
2023-02-16T17:59:41.658Z,54.63
2023-02-16T18:04:40.516Z,55.14
2023-02-16T18:09:39.490Z,55.50
2023-02-16T18:14:45.252Z,55.67
2023-02-16T18:19:42.235Z,56.25
2023-02-16T18:24:56.249Z,56.35
2023-02-16T18:29:53.793Z,56.85
2023-02-16T18:34:50.551Z,56.50
2023-02-16T18:39:47.396Z,57.98
2023-02-16T18:44:44.639Z,56.08
2023-02-16T18:49:43.541Z,57.54
2023-02-16T18:54:40.744Z,58.22
2023-02-16T18:59:37.673Z,58.74
2023-02-16T19:04:36.056Z,58.05
2023-02-16T19:09:33.512Z,59.23
2023-02-16T19:14:33.194Z,59.04
2023-02-16T19:19:31.000Z,60.31
2023-02-16T19:24:30.961Z,59.77
2023-02-16T19:29:28.546Z,60.38
2023-02-16T19:34:25.235Z,60.34
2023-02-16T19:39:21.974Z,59.84
2023-02-16T19:44:18.782Z,59.55
2023-02-16T19:49:16.605Z,61.60
2023-02-16T19:54:13.666Z,63.06
2023-02-16T19:59:10.683Z,63.00
2023-02-16T20:04:07.629Z,61.80
2023-02-16T20:09:05.087Z,62.32
2023-02-16T20:14:01.948Z,61.87
2023-02-16T20:18:58.739Z,61.43
2023-02-16T20:23:56.394Z,62.40
2023-02-16T20:28:53.642Z,62.19
2023-02-16T20:33:50.669Z,62.91
2023-02-16T20:38:47.796Z,64.09
2023-02-16T20:43:44.932Z,65.26
2023-02-16T20:48:42.511Z,65.57
2023-02-16T20:53:39.381Z,65.27
2023-02-16T20:58:36.594Z,65.55
2023-02-16T21:03:33.308Z,65.11
2023-02-16T21:08:30.734Z,63.34
2023-02-16T21:13:27.496Z,63.80
2023-02-16T21:18:24.243Z,64.36
2023-02-16T21:23:24.084Z,63.54
2023-02-16T21:28:21.518Z,63.49
2023-02-16T21:33:19.389Z,63.00
2023-02-16T21:38:17.275Z,63.30
2023-02-16T21:43:14.063Z,63.91
2023-02-16T21:48:30.383Z,63.89
2023-02-16T21:53:27.249Z,64.78
2023-02-16T21:58:26.285Z,64.78
2023-02-16T22:03:23.673Z,65.11
2023-02-16T22:08:20.470Z,67.50
2023-02-16T22:13:19.317Z,66.72
2023-02-16T22:18:19.014Z,66.62
2023-02-16T22:23:17.291Z,66.12
2023-02-16T22:28:14.115Z,68.23
2023-02-16T22:33:10.914Z,67.42
2023-02-16T22:38:07.985Z,67.84
2023-02-16T22:43:05.350Z,68.20
2023-02-16T22:48:08.192Z,67.24
2023-02-16T22:53:05.033Z,68.77
2023-02-16T22:58:01.718Z,69.15
2023-02-16T23:02:59.260Z,69.65
2023-02-16T23:07:56.030Z,69.54
2023-02-16T23:12:52.780Z,68.12
2023-02-16T23:17:52.385Z,69.30
2023-02-16T23:22:49.738Z,69.67
2023-02-16T23:27:46.646Z,69.58
2023-02-16T23:32:43.663Z,69.35
2023-02-16T23:37:46.463Z,69.40
2023-02-16T23:42:43.751Z,69.12
2023-02-16T23:47:40.389Z,68.16
2023-02-16T23:52:40.210Z,68.38
2023-02-16T23:57:36.968Z,69.10
